Strona główna
METAR-TAF:

METAR-TAF

Lotnisko :

Versailles, Ohio, Stany Zjednoczone

Szerokość geograficzna: 40-12-16N, Długość geograficzna: 084-31-55W, wysokość: 307 m

Aktualna obserwacja pogody

Raport powstał 34 minut temu, godzina 13:50 UTC
Wiatr 10 kt od zachodnio-południowy zachód
Temperatura 27°C
Wilgotność 100%
Ciśnienie 1016 hPa
Widzialność: 8.0 km
Przerywane chmury na wysokości 1200 ft
Przerywane chmury na wysokości 1900 ft
zamglenie

METAR: KVES 191350Z AUTO 24010KT 5SM BR BKN012 BKN019 27/27 A3000 RMK AO2

czas: 10:24 (14:24 UTC)


TAF: brakujący

Obserwacja i prognoza pogody dla ponad 4000 lotnisk (raport METAR i TAF).

Dostępne stacje oznaczono żółtymi i czerwonymi punktami na mapie.

Najedź kursorem aby zobaczyć nazwę stacji.

Kliknij aby zobaczyć obserwacje i prognozy pogody.

Aby zmienić mapę: kliknij na zielony przycisk z czarnym krzyżykiem, aby powiększyć; na zielony przycisk z myślnikiem, aby pomniejszyć; na zielone strzałki, aby przejść do map sąsiednich.


METAR-TAF: